createdAt,value
2018-07-30T00:00:44.618Z,99.90
2018-07-30T00:05:47.242Z,99.90
2018-07-30T00:08:17.963Z,99.90
2018-07-30T00:10:48.900Z,99.90
2018-07-30T00:13:19.657Z,99.90
2018-07-30T00:15:50.626Z,99.90
2018-07-30T00:18:21.537Z,99.90
2018-07-30T00:20:52.528Z,99.90
2018-07-30T00:23:24.532Z,99.90
2018-07-30T00:28:25.256Z,99.90
2018-07-30T00:30:55.914Z,99.90
2018-07-30T00:35:57.592Z,99.90
2018-07-30T00:38:28.971Z,99.90
2018-07-30T00:40:59.709Z,99.90
2018-07-30T00:43:30.724Z,99.90
2018-07-30T00:46:01.235Z,99.90
2018-07-30T00:48:31.919Z,99.90
2018-07-30T00:51:02.504Z,99.90
2018-07-30T00:53:33.159Z,99.90
2018-07-30T00:56:04.554Z,99.90
2018-07-30T00:58:35.918Z,99.90
2018-07-30T01:01:06.571Z,99.90
2018-07-30T01:03:37.857Z,99.90
2018-07-30T01:06:08.812Z,99.90
2018-07-30T01:11:09.672Z,99.90
2018-07-30T01:13:40.868Z,99.90
2018-07-30T01:16:11.970Z,99.90
2018-07-30T01:18:42.496Z,99.90
2018-07-30T01:21:13.060Z,99.90
2018-07-30T01:23:43.668Z,99.90
2018-07-30T01:26:19.536Z,99.90
2018-07-30T01:28:51.131Z,99.90
2018-07-30T01:31:21.621Z,99.90
2018-07-30T01:33:52.312Z,99.90
2018-07-30T01:36:22.764Z,99.90
2018-07-30T01:38:53.260Z,99.90
2018-07-30T01:41:23.806Z,99.90
2018-07-30T01:43:54.319Z,99.90
2018-07-30T01:48:56.020Z,99.90
2018-07-30T01:51:26.496Z,99.90
2018-07-30T01:53:57.167Z,99.90
2018-07-30T01:56:27.780Z,99.90
2018-07-30T01:58:58.264Z,99.90
2018-07-30T02:01:28.986Z,99.90
2018-07-30T02:04:00.485Z,99.90
2018-07-30T02:06:31.047Z,99.90
2018-07-30T02:09:01.559Z,99.90
2018-07-30T02:11:32.032Z,99.90
2018-07-30T02:14:02.611Z,99.90
2018-07-30T02:16:33.698Z,99.90
2018-07-30T02:21:35.202Z,99.90
2018-07-30T02:24:05.819Z,99.90
2018-07-30T02:26:36.425Z,99.90
2018-07-30T02:29:07.013Z,99.90
2018-07-30T02:31:37.621Z,99.90
2018-07-30T02:34:09.829Z,99.90
2018-07-30T02:36:40.359Z,99.90
2018-07-30T02:39:14.212Z,99.90
2018-07-30T02:41:44.775Z,99.90
2018-07-30T02:44:15.895Z,99.90
2018-07-30T02:46:47.165Z,99.90
2018-07-30T02:49:17.748Z,99.90
2018-07-30T02:51:48.341Z,99.90
2018-07-30T02:54:19.023Z,99.90
2018-07-30T02:56:49.496Z,99.90
2018-07-30T02:59:19.951Z,99.90
2018-07-30T03:01:50.566Z,99.90
2018-07-30T03:04:21.014Z,99.90
2018-07-30T03:06:51.615Z,99.90
2018-07-30T03:09:22.204Z,99.90
2018-07-30T03:11:53.180Z,99.90
2018-07-30T03:14:24.318Z,99.90
2018-07-30T03:16:54.841Z,99.90
2018-07-30T03:19:25.309Z,99.90
2018-07-30T03:21:55.869Z,99.90
2018-07-30T03:24:26.508Z,99.90
2018-07-30T03:26:56.928Z,99.90
2018-07-30T03:29:27.401Z,99.90
2018-07-30T03:34:29.791Z,99.90
2018-07-30T03:37:00.395Z,99.90
2018-07-30T03:39:31.047Z,99.90
2018-07-30T03:42:01.523Z,99.90
2018-07-30T03:44:32.154Z,99.90
2018-07-30T03:47:02.754Z,99.90
2018-07-30T03:49:33.453Z,99.90
2018-07-30T03:52:04.284Z,99.90
2018-07-30T03:57:05.191Z,99.90
2018-07-30T03:59:36.050Z,99.90
2018-07-30T04:04:36.829Z,99.90
2018-07-30T04:07:07.435Z,99.90
2018-07-30T04:09:38.125Z,99.90
2018-07-30T04:12:09.621Z,99.90
2018-07-30T04:14:40.159Z,99.90
2018-07-30T04:19:40.811Z,99.90
2018-07-30T04:22:11.500Z,99.90
2018-07-30T04:27:12.096Z,99.90
2018-07-30T04:29:42.631Z,99.90
2018-07-30T04:34:43.504Z,99.90
2018-07-30T04:37:15.080Z,99.90
2018-07-30T04:39:45.582Z,99.90
2018-07-30T04:42:16.174Z,99.90
2018-07-30T04:44:46.964Z,99.90
2018-07-30T04:47:17.553Z,99.90
2018-07-30T04:49:48.070Z,99.90
2018-07-30T04:52:18.470Z,99.90
2018-07-30T04:54:49.009Z,99.90
2018-07-30T04:57:19.816Z,99.90
2018-07-30T04:59:50.957Z,99.90
2018-07-30T05:02:21.512Z,99.90
2018-07-30T05:04:52.035Z,99.90
2018-07-30T05:07:22.731Z,99.90
2018-07-30T05:09:53.761Z,99.90
2018-07-30T05:12:24.262Z,99.90
2018-07-30T05:14:54.785Z,99.90
2018-07-30T05:17:25.391Z,99.90
2018-07-30T05:19:56.028Z,99.90
2018-07-30T05:22:26.954Z,99.90
2018-07-30T05:24:57.471Z,99.90
2018-07-30T05:27:28.229Z,99.90
2018-07-30T05:29:58.885Z,99.90
2018-07-30T05:32:29.624Z,99.90
2018-07-30T05:35:00.155Z,99.90
2018-07-30T05:37:32.104Z,99.90
2018-07-30T05:40:02.951Z,99.90
2018-07-30T05:42:33.647Z,99.90
2018-07-30T05:45:04.309Z,99.90
2018-07-30T05:47:34.836Z,99.90
2018-07-30T05:50:06.017Z,99.90
2018-07-30T05:52:36.959Z,99.90
2018-07-30T05:55:07.728Z,99.90
2018-07-30T05:57:38.365Z,99.90
2018-07-30T06:00:09.399Z,99.90
2018-07-30T06:02:40.340Z,99.90
2018-07-30T06:05:11.489Z,99.90
2018-07-30T06:07:42.472Z,99.90
2018-07-30T06:10:14.095Z,99.90
2018-07-30T06:12:45.593Z,99.90
2018-07-30T06:15:18.187Z,99.90
2018-07-30T06:17:49.937Z,99.90
2018-07-30T06:20:20.770Z,99.90
2018-07-30T06:22:51.545Z,99.90
2018-07-30T06:25:23.256Z,99.90
2018-07-30T06:27:55.955Z,99.90
2018-07-30T06:30:26.998Z,99.90
2018-07-30T06:32:57.664Z,99.90
2018-07-30T06:35:28.491Z,99.90
2018-07-30T06:37:59.178Z,99.90
2018-07-30T06:40:29.964Z,99.90
2018-07-30T06:43:00.440Z,99.90
2018-07-30T06:45:31.280Z,99.90
2018-07-30T06:48:01.900Z,99.90
2018-07-30T06:50:33.573Z,99.90
2018-07-30T06:53:04.258Z,99.90
2018-07-30T06:55:34.902Z,99.90
2018-07-30T06:58:05.931Z,99.90
2018-07-30T07:00:37.212Z,99.90
2018-07-30T07:03:09.075Z,99.90
2018-07-30T07:05:39.822Z,99.90
2018-07-30T07:08:10.805Z,99.90
2018-07-30T07:10:41.603Z,99.90
2018-07-30T07:13:12.637Z,99.90
2018-07-30T07:15:43.712Z,99.90
2018-07-30T07:18:14.578Z,99.90
2018-07-30T07:20:46.540Z,99.90
2018-07-30T07:23:18.029Z,99.90
2018-07-30T07:25:48.942Z,99.90
2018-07-30T07:28:21.292Z,99.90
2018-07-30T07:30:52.059Z,99.90
2018-07-30T07:33:22.772Z,99.90
2018-07-30T07:35:54.510Z,99.90
2018-07-30T07:38:25.921Z,99.90
2018-07-30T07:40:57.993Z,99.90
2018-07-30T07:43:29.349Z,99.90
2018-07-30T07:46:01.120Z,99.90
2018-07-30T07:51:05.137Z,99.90
2018-07-30T07:53:38.038Z,99.90
2018-07-30T07:58:40.452Z,98.90
2018-07-30T08:03:42.736Z,95.10
2018-07-30T08:06:14.733Z,93.50
2018-07-30T08:08:45.919Z,92.80
2018-07-30T08:11:16.849Z,91.30
2018-07-30T08:13:48.072Z,90.10
2018-07-30T08:16:20.017Z,87.40
2018-07-30T08:18:50.673Z,85.70
2018-07-30T08:21:21.685Z,86.40
2018-07-30T08:23:53.141Z,87.50
2018-07-30T08:26:25.211Z,82.80
2018-07-30T08:28:57.548Z,81.30
2018-07-30T08:31:29.527Z,80.50
2018-07-30T08:34:00.617Z,77.50
2018-07-30T08:36:31.831Z,77.50
2018-07-30T08:39:03.343Z,76.60
2018-07-30T08:41:34.094Z,75.70
2018-07-30T08:44:05.311Z,73.40
2018-07-30T08:46:36.009Z,73.00
2018-07-30T08:49:07.264Z,73.20
2018-07-30T08:51:39.011Z,71.60
2018-07-30T08:54:10.130Z,71.30
2018-07-30T08:59:11.575Z,70.70
2018-07-30T09:01:44.799Z,69.60
2018-07-30T09:04:15.924Z,66.90
2018-07-30T09:06:54.854Z,65.50
2018-07-30T09:09:29.093Z,66.90
2018-07-30T09:12:01.221Z,67.10
2018-07-30T09:14:32.270Z,64.40
2018-07-30T09:17:04.890Z,65.30
2018-07-30T09:19:36.935Z,65.60
2018-07-30T09:22:09.031Z,65.40
2018-07-30T09:24:40.534Z,64.10
2018-07-30T09:29:43.378Z,64.80
2018-07-30T09:32:14.906Z,63.20
2018-07-30T09:34:45.553Z,59.10
2018-07-30T09:37:16.923Z,56.50
2018-07-30T09:39:48.228Z,54.20
2018-07-30T09:42:19.970Z,54.90
2018-07-30T09:44:51.422Z,58.50
2018-07-30T09:47:22.797Z,59.30
2018-07-30T09:49:53.421Z,57.30
2018-07-30T09:52:24.126Z,56.60
2018-07-30T09:54:55.378Z,54.90
2018-07-30T09:57:26.185Z,52.90
2018-07-30T10:02:30.198Z,53.30
2018-07-30T10:05:01.033Z,55.30
2018-07-30T10:07:32.139Z,54.10
2018-07-30T10:12:33.729Z,50.70
2018-07-30T10:15:04.737Z,50.00
2018-07-30T10:17:38.407Z,47.20
2018-07-30T10:20:10.446Z,45.60
2018-07-30T10:22:41.784Z,45.00
2018-07-30T10:25:13.179Z,44.80
2018-07-30T10:27:44.857Z,47.20
2018-07-30T10:30:15.658Z,48.90
2018-07-30T10:32:46.706Z,47.50
2018-07-30T10:35:18.401Z,48.60
2018-07-30T10:37:49.726Z,48.40
2018-07-30T10:40:20.451Z,50.80
2018-07-30T10:42:51.499Z,48.60
2018-07-30T10:47:53.036Z,47.10
2018-07-30T10:50:23.881Z,47.50
2018-07-30T10:52:55.152Z,47.70
2018-07-30T10:55:27.132Z,45.40
2018-07-30T10:57:58.482Z,43.80
2018-07-30T11:02:59.709Z,40.40
2018-07-30T11:05:35.000Z,40.60
2018-07-30T11:08:05.880Z,39.10
2018-07-30T11:10:36.800Z,40.50
2018-07-30T11:13:08.965Z,40.60
2018-07-30T11:15:39.691Z,41.20
2018-07-30T11:20:40.717Z,39.80
2018-07-30T11:23:11.955Z,39.80
2018-07-30T11:28:13.577Z,38.50
2018-07-30T11:30:45.694Z,38.40
2018-07-30T11:33:16.849Z,39.20
2018-07-30T11:35:47.569Z,40.00
2018-07-30T11:38:18.876Z,39.40
2018-07-30T11:40:50.544Z,40.20
2018-07-30T11:43:21.217Z,39.60
2018-07-30T11:45:52.359Z,43.60
2018-07-30T11:48:23.884Z,41.00
2018-07-30T11:50:55.942Z,39.80
2018-07-30T11:53:26.881Z,39.60
2018-07-30T11:55:58.451Z,39.10
2018-07-30T11:58:29.784Z,38.70
2018-07-30T12:01:01.433Z,37.70
2018-07-30T12:03:32.294Z,36.80
2018-07-30T12:08:34.830Z,38.20
2018-07-30T12:11:05.804Z,37.60
2018-07-30T12:13:36.701Z,38.60
2018-07-30T12:16:08.496Z,39.20
2018-07-30T12:18:39.358Z,39.70
2018-07-30T12:21:10.257Z,39.40
2018-07-30T12:23:41.082Z,40.00
2018-07-30T12:26:12.920Z,39.90
2018-07-30T12:28:44.230Z,39.60
2018-07-30T12:31:19.101Z,39.70
2018-07-30T12:33:49.993Z,40.20
2018-07-30T12:36:20.924Z,39.00
2018-07-30T12:38:51.788Z,38.90
2018-07-30T12:41:23.009Z,38.90
2018-07-30T12:46:28.843Z,38.40
2018-07-30T12:49:00.478Z,39.10
2018-07-30T12:51:32.836Z,37.90
2018-07-30T12:54:05.418Z,37.20
2018-07-30T12:56:36.802Z,37.20
2018-07-30T12:59:09.526Z,36.80
2018-07-30T13:01:41.636Z,36.30
2018-07-30T13:04:13.074Z,35.80
2018-07-30T13:06:45.823Z,35.70
2018-07-30T13:09:16.824Z,36.10
2018-07-30T13:11:47.853Z,34.00
2018-07-30T13:14:18.702Z,33.80
2018-07-30T13:16:50.332Z,34.90
2018-07-30T13:19:26.498Z,34.90
2018-07-30T13:21:59.379Z,35.50
2018-07-30T13:24:30.949Z,36.00
2018-07-30T13:27:01.994Z,36.50
2018-07-30T13:29:33.708Z,37.40
2018-07-30T13:32:07.247Z,37.00
2018-07-30T13:34:38.117Z,36.70
2018-07-30T13:37:09.765Z,37.20
2018-07-30T13:39:42.492Z,37.70
2018-07-30T13:42:13.415Z,37.90
2018-07-30T13:44:44.829Z,38.30
2018-07-30T13:47:16.030Z,39.40
2018-07-30T13:49:47.964Z,38.30
2018-07-30T13:52:18.800Z,38.70
2018-07-30T13:54:49.690Z,38.50
2018-07-30T13:57:20.304Z,37.80
2018-07-30T13:59:51.410Z,37.90
2018-07-30T14:02:22.329Z,37.50
2018-07-30T14:04:52.989Z,37.70
2018-07-30T14:07:25.018Z,38.10
2018-07-30T14:09:56.571Z,39.00
2018-07-30T14:12:28.201Z,39.30
2018-07-30T14:14:59.109Z,39.00
2018-07-30T14:17:30.232Z,40.00
2018-07-30T14:20:00.968Z,39.30
2018-07-30T14:22:32.598Z,39.20
2018-07-30T14:25:03.682Z,39.80
2018-07-30T14:27:36.313Z,37.10
2018-07-30T14:30:09.481Z,36.90
2018-07-30T14:32:40.790Z,37.10
2018-07-30T14:35:13.465Z,36.90
2018-07-30T14:37:46.067Z,37.90
2018-07-30T14:40:18.090Z,37.50
2018-07-30T14:42:50.916Z,37.80
2018-07-30T14:45:25.586Z,38.40
2018-07-30T14:47:56.247Z,38.80
2018-07-30T14:50:27.038Z,39.20
2018-07-30T14:52:57.843Z,39.00
2018-07-30T14:55:28.909Z,39.30
2018-07-30T14:58:00.588Z,39.30
2018-07-30T15:03:02.323Z,40.30
2018-07-30T15:05:33.197Z,41.00
2018-07-30T15:08:04.707Z,42.00
2018-07-30T15:10:35.579Z,41.90
2018-07-30T15:13:06.256Z,43.30
2018-07-30T15:15:37.597Z,44.40
2018-07-30T15:20:40.225Z,43.40
2018-07-30T15:25:43.306Z,43.00
2018-07-30T15:28:13.926Z,43.50
2018-07-30T15:30:44.766Z,42.60
2018-07-30T15:33:16.263Z,43.30
2018-07-30T15:35:48.766Z,42.90
2018-07-30T15:38:19.734Z,43.40
2018-07-30T15:40:50.544Z,43.10
2018-07-30T15:43:21.128Z,43.50
2018-07-30T15:45:51.811Z,43.60
2018-07-30T15:48:23.256Z,44.00
2018-07-30T15:50:53.870Z,45.10
2018-07-30T15:55:57.288Z,42.30
2018-07-30T15:58:28.302Z,43.00
2018-07-30T16:00:58.976Z,41.50
2018-07-30T16:03:29.987Z,42.20
2018-07-30T16:06:00.710Z,42.70
2018-07-30T16:08:31.894Z,41.80
2018-07-30T16:11:03.742Z,41.50
2018-07-30T16:13:35.837Z,41.90
2018-07-30T16:16:06.633Z,43.90
2018-07-30T16:18:37.850Z,44.70
2018-07-30T16:21:09.396Z,45.60
2018-07-30T16:23:40.357Z,45.20
2018-07-30T16:26:16.216Z,46.10
2018-07-30T16:28:48.384Z,46.30
2018-07-30T16:31:19.485Z,47.10
2018-07-30T16:33:50.342Z,47.60
2018-07-30T16:36:21.556Z,48.10
2018-07-30T16:38:52.490Z,48.00
2018-07-30T16:41:24.034Z,47.60
2018-07-30T16:43:54.847Z,46.30
2018-07-30T16:46:26.466Z,45.40
2018-07-30T16:48:58.540Z,44.70
2018-07-30T16:51:29.914Z,45.30
2018-07-30T16:54:01.285Z,45.00
2018-07-30T16:56:35.220Z,45.20
2018-07-30T16:59:12.053Z,45.80
2018-07-30T17:01:44.256Z,46.20
2018-07-30T17:04:16.781Z,46.10
2018-07-30T17:06:49.573Z,46.30
2018-07-30T17:09:21.010Z,46.90
2018-07-30T17:11:52.186Z,47.40
2018-07-30T17:14:22.957Z,47.50
2018-07-30T17:16:53.898Z,47.50
2018-07-30T17:19:25.582Z,47.80
2018-07-30T17:21:56.685Z,48.00
2018-07-30T17:24:27.983Z,48.40
2018-07-30T17:26:58.837Z,48.70
2018-07-30T17:29:29.832Z,48.80
2018-07-30T17:32:00.638Z,50.40
2018-07-30T17:34:31.523Z,51.60
2018-07-30T17:37:03.114Z,51.30
2018-07-30T17:39:35.059Z,52.50
2018-07-30T17:44:37.368Z,53.90
2018-07-30T17:47:08.370Z,56.30
2018-07-30T17:49:39.163Z,56.30
2018-07-30T17:52:09.905Z,56.10
2018-07-30T17:54:41.629Z,56.70
2018-07-30T17:57:13.429Z,57.90
2018-07-30T17:59:44.432Z,58.20
2018-07-30T18:02:15.424Z,61.00
2018-07-30T18:07:16.951Z,60.60
2018-07-30T18:09:47.654Z,60.70
2018-07-30T18:12:18.533Z,61.20
2018-07-30T18:17:22.043Z,63.10
2018-07-30T18:19:52.988Z,63.50
2018-07-30T18:22:23.774Z,63.00
2018-07-30T18:24:55.312Z,63.70
2018-07-30T18:27:26.874Z,65.00
2018-07-30T18:29:57.678Z,65.50
2018-07-30T18:32:30.691Z,66.10
2018-07-30T18:35:01.729Z,66.80
2018-07-30T18:37:34.478Z,65.20
2018-07-30T18:40:05.991Z,64.50
2018-07-30T18:42:36.999Z,64.10
2018-07-30T18:45:09.581Z,64.30
2018-07-30T18:47:41.804Z,66.20
2018-07-30T18:50:15.895Z,69.10
2018-07-30T18:52:47.946Z,69.90
2018-07-30T18:55:21.781Z,70.30
2018-07-30T18:58:02.042Z,68.70
2018-07-30T19:00:37.092Z,70.20
2018-07-30T19:03:13.662Z,71.10
2018-07-30T19:05:52.132Z,71.20
2018-07-30T19:08:25.060Z,71.80
2018-07-30T19:10:59.944Z,73.00
2018-07-30T19:16:03.410Z,73.10
2018-07-30T19:18:35.312Z,73.20
2018-07-30T19:23:44.764Z,73.90
2018-07-30T19:26:16.669Z,74.90
2018-07-30T19:28:52.479Z,75.30
2018-07-30T19:31:24.256Z,75.40
2018-07-30T19:33:56.319Z,76.40
2018-07-30T19:36:29.199Z,75.80
2018-07-30T19:39:01.156Z,76.00
2018-07-30T19:44:02.867Z,74.10
2018-07-30T19:49:06.582Z,74.80
2018-07-30T19:51:38.242Z,74.50
2018-07-30T19:54:12.566Z,81.60
2018-07-30T19:56:45.303Z,83.70
2018-07-30T19:59:17.847Z,84.10
2018-07-30T20:01:51.989Z,84.30
2018-07-30T20:04:23.738Z,85.00
2018-07-30T20:06:57.141Z,85.00
2018-07-30T20:09:28.824Z,85.80
2018-07-30T20:12:00.844Z,84.60
2018-07-30T20:14:32.634Z,84.10
2018-07-30T20:17:04.349Z,83.80
2018-07-30T20:19:37.317Z,83.90
2018-07-30T20:22:11.103Z,83.40
2018-07-30T20:24:42.422Z,85.60
2018-07-30T20:27:13.987Z,85.50
2018-07-30T20:29:46.874Z,84.30
2018-07-30T20:32:18.682Z,85.30
2018-07-30T20:34:50.393Z,87.50
2018-07-30T20:37:22.532Z,87.50
2018-07-30T20:39:54.221Z,89.10
2018-07-30T20:42:25.792Z,90.40
2018-07-30T20:44:56.680Z,91.50
2018-07-30T20:47:27.879Z,91.80
2018-07-30T20:49:59.920Z,90.80
2018-07-30T20:52:36.221Z,90.70
2018-07-30T20:55:09.352Z,90.80
2018-07-30T20:57:41.374Z,90.50
2018-07-30T21:02:43.073Z,90.60
2018-07-30T21:05:15.125Z,91.40
2018-07-30T21:07:47.514Z,92.50
2018-07-30T21:10:19.337Z,93.40
2018-07-30T21:12:50.216Z,91.70
2018-07-30T21:15:20.937Z,92.10
2018-07-30T21:17:52.056Z,91.60
2018-07-30T21:20:22.909Z,91.40
2018-07-30T21:22:53.661Z,91.30
2018-07-30T21:25:24.500Z,91.80
2018-07-30T21:27:57.076Z,91.70
2018-07-30T21:30:27.890Z,92.20
2018-07-30T21:32:58.544Z,92.40
2018-07-30T21:35:29.802Z,93.00
2018-07-30T21:38:00.633Z,93.70
2018-07-30T21:40:31.520Z,94.30
2018-07-30T21:43:02.460Z,94.60
2018-07-30T21:45:34.029Z,95.00
2018-07-30T21:48:05.288Z,95.20
2018-07-30T21:50:36.295Z,95.40
2018-07-30T21:53:07.292Z,95.30
2018-07-30T21:55:38.213Z,95.60
2018-07-30T21:58:09.049Z,96.00
2018-07-30T22:00:39.842Z,96.50
2018-07-30T22:03:11.309Z,97.10
2018-07-30T22:05:43.668Z,97.40
2018-07-30T22:08:14.257Z,97.30
2018-07-30T22:10:44.862Z,97.60
2018-07-30T22:13:16.124Z,97.40
2018-07-30T22:15:46.869Z,97.10
2018-07-30T22:18:18.608Z,97.30
2018-07-30T22:20:49.770Z,97.40
2018-07-30T22:23:21.705Z,97.70
2018-07-30T22:25:52.685Z,98.70
2018-07-30T22:28:23.556Z,99.90
2018-07-30T22:30:54.471Z,99.90
2018-07-30T22:33:25.413Z,99.90
2018-07-30T22:35:56.458Z,99.90
2018-07-30T22:38:27.081Z,99.90
2018-07-30T22:43:29.374Z,99.90
2018-07-30T22:46:00.009Z,99.90
2018-07-30T22:48:30.724Z,99.90
2018-07-30T22:51:01.369Z,99.90
2018-07-30T22:53:32.100Z,99.90
2018-07-30T22:56:03.355Z,99.90
2018-07-30T22:58:34.993Z,99.90
2018-07-30T23:01:06.709Z,99.90
2018-07-30T23:03:37.543Z,99.90
2018-07-30T23:06:08.177Z,99.90
2018-07-30T23:08:38.851Z,99.90
2018-07-30T23:11:09.666Z,99.90
2018-07-30T23:13:40.312Z,99.90
2018-07-30T23:16:11.029Z,99.90
2018-07-30T23:18:41.723Z,99.90
2018-07-30T23:21:12.436Z,99.90
2018-07-30T23:23:43.167Z,99.90
2018-07-30T23:26:13.837Z,99.90
2018-07-30T23:28:44.928Z,99.90
2018-07-30T23:31:15.552Z,99.90
2018-07-30T23:33:46.877Z,99.90
2018-07-30T23:36:18.638Z,99.90
2018-07-30T23:38:49.450Z,99.90
2018-07-30T23:41:20.931Z,99.90
2018-07-30T23:43:52.093Z,99.90
2018-07-30T23:46:22.675Z,99.90
2018-07-30T23:48:53.415Z,99.90
2018-07-30T23:51:23.983Z,99.90
2018-07-30T23:53:54.632Z,99.90
2018-07-30T23:58:56.159Z,99.90
